Terminal Aerodrome Forecast
Issued by NWS

Current Version | Previous Version | Graphics & Text | Print | Product List | Glossary On
Versions: 1 2 3 4 5 6 7 8 9 10 11 12 13 14 15
000
FTUS41 KPBZ 242300
TAFHLG
TAF
KHLG 242320Z 2500/2524 17010KT P6SM BKN040 WS015/21045KT
      TEMPO 2500/2502 23020G43KT 3SM -TSRA OVC015CB
     FM250200 25015G30KT P6SM -SHRA OVC008
     FM251200 24014G24KT P6SM -SHSN OVC022
     FM251800 25012G22KT P6SM BKN035=

USA.gov is the U.S. government's official web portal to all federal, state and local government web resources and services.